首页
METAR-TAF:

METAR-TAF

机场 :

Air Force Station

卡纳维拉尔角空军基地, 佛罗里达州, 美国

纬度: 28-28N, 经度: 080-33W, 海拔: 3米

当前天气观测

该预报发布于11分钟前的23:26 UTC
风速12节,风向北转西北
温度 20°C
湿度 88%
气压 1015 hPa
能見度: 16.1公里
多云层高于500英尺

METAR: KXMR 022326Z AUTO 33012KT 10SM BKN005 20/18 A2998 RMK AO2 SLP155 FZRANO $

时间: 18:37 (23:37 UTC)


TAF: 丢失

超过4000个机场的气象观测和天气预报(METAR&TAF报告)。

可查询的气象台以黄色和红色小点在地图上表示。

将鼠标移到小点上方,可查看气象台名称。

然后点击查看天气观测和预报。

如需切换地图:点击带黑十字的绿色按钮放大地图;点击带横线的绿色按钮缩小地图;或者点击绿色箭头查看邻近地区的地图。


METAR-TAF: